sensor_id;sensor_type;location;lat;lon;timestamp;P1;durP1;ratioP1;P2;durP2;ratioP2
3083;SDS011;1552;51.952;7.618;2022-08-18T00:02:03;53.78;;;44.67;;
3083;SDS011;1552;51.952;7.618;2022-08-18T00:04:30;60.90;;;47.63;;
3083;SDS011;1552;51.952;7.618;2022-08-18T00:06:57;56.67;;;47.70;;
3083;SDS011;1552;51.952;7.618;2022-08-18T00:09:23;62.50;;;48.10;;
3083;SDS011;1552;51.952;7.618;2022-08-18T00:11:49;56.60;;;46.45;;
3083;SDS011;1552;51.952;7.618;2022-08-18T00:14:19;57.47;;;46.88;;
3083;SDS011;1552;51.952;7.618;2022-08-18T00:16:45;62.40;;;50.90;;
3083;SDS011;1552;51.952;7.618;2022-08-18T00:19:13;57.30;;;46.70;;
3083;SDS011;1552;51.952;7.618;2022-08-18T00:21:39;65.38;;;51.67;;
3083;SDS011;1552;51.952;7.618;2022-08-18T00:24:06;66.22;;;50.08;;
3083;SDS011;1552;51.952;7.618;2022-08-18T00:26:32;57.15;;;48.47;;
3083;SDS011;1552;51.952;7.618;2022-08-18T00:28:58;64.22;;;49.45;;
3083;SDS011;1552;51.952;7.618;2022-08-18T00:31:25;64.63;;;51.78;;
3083;SDS011;1552;51.952;7.618;2022-08-18T00:33:51;68.45;;;54.05;;
3083;SDS011;1552;51.952;7.618;2022-08-18T00:36:18;71.40;;;54.88;;
3083;SDS011;1552;51.952;7.618;2022-08-18T00:38:45;68.60;;;54.20;;
3083;SDS011;1552;51.952;7.618;2022-08-18T00:41:11;73.68;;;56.92;;
3083;SDS011;1552;51.952;7.618;2022-08-18T00:43:39;72.63;;;57.40;;
3083;SDS011;1552;51.952;7.618;2022-08-18T00:46:07;71.65;;;56.25;;
3083;SDS011;1552;51.952;7.618;2022-08-18T00:48:34;72.15;;;54.70;;
3083;SDS011;1552;51.952;7.618;2022-08-18T00:51:01;72.97;;;56.28;;
3083;SDS011;1552;51.952;7.618;2022-08-18T00:59:25;90.65;;;65.57;;
3083;SDS011;1552;51.952;7.618;2022-08-18T01:01:53;86.13;;;64.28;;
3083;SDS011;1552;51.952;7.618;2022-08-18T01:04:21;90.55;;;64.85;;
3083;SDS011;1552;51.952;7.618;2022-08-18T01:06:50;86.43;;;66.63;;
3083;SDS011;1552;51.952;7.618;2022-08-18T01:09:18;93.18;;;68.45;;
3083;SDS011;1552;51.952;7.618;2022-08-18T01:11:45;113.53;;;76.22;;
3083;SDS011;1552;51.952;7.618;2022-08-18T01:14:11;97.03;;;68.85;;
3083;SDS011;1552;51.952;7.618;2022-08-18T01:16:41;104.72;;;72.07;;
3083;SDS011;1552;51.952;7.618;2022-08-18T01:19:26;101.65;;;70.43;;
3083;SDS011;1552;51.952;7.618;2022-08-18T01:22:12;100.00;;;70.18;;
3083;SDS011;1552;51.952;7.618;2022-08-18T01:24:41;111.40;;;76.88;;
3083;SDS011;1552;51.952;7.618;2022-08-18T01:27:25;100.60;;;74.20;;
3083;SDS011;1552;51.952;7.618;2022-08-18T01:29:56;99.93;;;68.80;;
3083;SDS011;1552;51.952;7.618;2022-08-18T01:32:23;106.22;;;72.20;;
3083;SDS011;1552;51.952;7.618;2022-08-18T01:34:50;107.15;;;75.10;;
3083;SDS011;1552;51.952;7.618;2022-08-18T01:37:18;108.03;;;75.90;;
3083;SDS011;1552;51.952;7.618;2022-08-18T01:39:46;101.43;;;70.35;;
3083;SDS011;1552;51.952;7.618;2022-08-18T01:42:13;99.22;;;70.95;;
3083;SDS011;1552;51.952;7.618;2022-08-18T01:44:41;109.07;;;73.78;;
3083;SDS011;1552;51.952;7.618;2022-08-18T01:47:07;109.57;;;70.53;;
3083;SDS011;1552;51.952;7.618;2022-08-18T01:49:35;105.97;;;70.72;;
3083;SDS011;1552;51.952;7.618;2022-08-18T01:52:01;91.38;;;63.97;;
3083;SDS011;1552;51.952;7.618;2022-08-18T01:54:28;92.75;;;63.33;;
3083;SDS011;1552;51.952;7.618;2022-08-18T01:56:57;94.90;;;64.32;;
3083;SDS011;1552;51.952;7.618;2022-08-18T01:59:23;89.53;;;60.55;;
3083;SDS011;1552;51.952;7.618;2022-08-18T02:01:50;93.45;;;62.63;;
3083;SDS011;1552;51.952;7.618;2022-08-18T02:04:17;93.30;;;62.95;;
3083;SDS011;1552;51.952;7.618;2022-08-18T02:06:43;88.85;;;57.22;;
3083;SDS011;1552;51.952;7.618;2022-08-18T02:09:10;83.63;;;55.88;;
3083;SDS011;1552;51.952;7.618;2022-08-18T02:11:36;81.43;;;56.17;;
3083;SDS011;1552;51.952;7.618;2022-08-18T02:14:03;76.15;;;52.00;;
3083;SDS011;1552;51.952;7.618;2022-08-18T02:16:30;75.15;;;53.30;;
3083;SDS011;1552;51.952;7.618;2022-08-18T02:18:57;81.55;;;54.30;;
3083;SDS011;1552;51.952;7.618;2022-08-18T02:21:24;77.32;;;52.95;;
3083;SDS011;1552;51.952;7.618;2022-08-18T02:23:50;79.18;;;55.25;;
3083;SDS011;1552;51.952;7.618;2022-08-18T02:26:20;81.85;;;57.20;;
3083;SDS011;1552;51.952;7.618;2022-08-18T02:28:47;83.55;;;55.92;;
3083;SDS011;1552;51.952;7.618;2022-08-18T02:31:16;76.07;;;52.88;;
3083;SDS011;1552;51.952;7.618;2022-08-18T02:33:43;77.68;;;53.28;;
3083;SDS011;1552;51.952;7.618;2022-08-18T02:36:09;83.57;;;58.25;;
3083;SDS011;1552;51.952;7.618;2022-08-18T02:38:36;83.10;;;56.75;;
3083;SDS011;1552;51.952;7.618;2022-08-18T02:41:03;79.78;;;57.58;;
3083;SDS011;1552;51.952;7.618;2022-08-18T02:43:33;82.40;;;57.90;;
3083;SDS011;1552;51.952;7.618;2022-08-18T02:45:59;84.20;;;55.47;;
3083;SDS011;1552;51.952;7.618;2022-08-18T02:48:26;74.57;;;53.88;;
3083;SDS011;1552;51.952;7.618;2022-08-18T02:50:58;83.75;;;57.25;;
3083;SDS011;1552;51.952;7.618;2022-08-18T02:53:25;83.57;;;58.08;;
3083;SDS011;1552;51.952;7.618;2022-08-18T02:55:53;85.28;;;59.35;;
3083;SDS011;1552;51.952;7.618;2022-08-18T02:58:19;79.82;;;55.05;;
3083;SDS011;1552;51.952;7.618;2022-08-18T03:00:45;78.78;;;54.65;;
3083;SDS011;1552;51.952;7.618;2022-08-18T03:03:13;90.75;;;59.17;;
3083;SDS011;1552;51.952;7.618;2022-08-18T03:05:41;77.50;;;53.55;;
3083;SDS011;1552;51.952;7.618;2022-08-18T03:08:07;86.25;;;59.92;;
3083;SDS011;1552;51.952;7.618;2022-08-18T03:10:34;87.97;;;59.65;;
3083;SDS011;1552;51.952;7.618;2022-08-18T03:13:00;76.78;;;54.22;;
3083;SDS011;1552;51.952;7.618;2022-08-18T03:15:27;86.63;;;59.47;;
3083;SDS011;1552;51.952;7.618;2022-08-18T03:17:53;95.70;;;63.33;;
3083;SDS011;1552;51.952;7.618;2022-08-18T03:20:20;93.25;;;61.05;;
3083;SDS011;1552;51.952;7.618;2022-08-18T03:22:47;96.47;;;63.80;;
3083;SDS011;1552;51.952;7.618;2022-08-18T03:25:14;92.13;;;62.13;;
3083;SDS011;1552;51.952;7.618;2022-08-18T03:27:40;92.78;;;61.25;;
3083;SDS011;1552;51.952;7.618;2022-08-18T03:30:07;86.80;;;58.25;;
3083;SDS011;1552;51.952;7.618;2022-08-18T03:32:33;85.50;;;56.97;;
3083;SDS011;1552;51.952;7.618;2022-08-18T03:34:59;93.13;;;59.85;;
3083;SDS011;1552;51.952;7.618;2022-08-18T03:37:26;91.95;;;61.13;;
3083;SDS011;1552;51.952;7.618;2022-08-18T03:39:53;85.82;;;57.25;;
3083;SDS011;1552;51.952;7.618;2022-08-18T03:42:20;91.15;;;60.05;;
3083;SDS011;1552;51.952;7.618;2022-08-18T03:44:46;95.82;;;62.22;;
3083;SDS011;1552;51.952;7.618;2022-08-18T03:47:13;85.28;;;59.63;;
3083;SDS011;1552;51.952;7.618;2022-08-18T03:52:12;89.13;;;57.35;;
3083;SDS011;1552;51.952;7.618;2022-08-18T03:54:38;92.90;;;60.50;;
3083;SDS011;1552;51.952;7.618;2022-08-18T03:57:07;90.50;;;59.88;;
3083;SDS011;1552;51.952;7.618;2022-08-18T03:59:34;89.18;;;57.88;;
3083;SDS011;1552;51.952;7.618;2022-08-18T04:02:01;92.07;;;60.28;;
3083;SDS011;1552;51.952;7.618;2022-08-18T04:04:27;99.38;;;63.20;;
3083;SDS011;1552;51.952;7.618;2022-08-18T04:06:55;89.70;;;61.05;;
3083;SDS011;1552;51.952;7.618;2022-08-18T04:09:22;91.60;;;59.92;;
3083;SDS011;1552;51.952;7.618;2022-08-18T04:11:49;100.00;;;63.47;;
3083;SDS011;1552;51.952;7.618;2022-08-18T04:14:18;90.43;;;58.85;;
3083;SDS011;1552;51.952;7.618;2022-08-18T04:16:45;84.22;;;58.15;;
3083;SDS011;1552;51.952;7.618;2022-08-18T04:19:13;99.80;;;66.22;;
3083;SDS011;1552;51.952;7.618;2022-08-18T04:21:40;93.18;;;61.25;;
3083;SDS011;1552;51.952;7.618;2022-08-18T04:24:07;97.38;;;64.32;;
3083;SDS011;1552;51.952;7.618;2022-08-18T04:26:35;87.25;;;60.15;;
3083;SDS011;1552;51.952;7.618;2022-08-18T04:29:02;87.45;;;59.60;;
3083;SDS011;1552;51.952;7.618;2022-08-18T04:31:30;91.13;;;62.53;;
3083;SDS011;1552;51.952;7.618;2022-08-18T04:33:56;91.72;;;59.55;;
3083;SDS011;1552;51.952;7.618;2022-08-18T04:36:23;96.13;;;62.80;;
3083;SDS011;1552;51.952;7.618;2022-08-18T04:38:50;95.97;;;63.00;;
3083;SDS011;1552;51.952;7.618;2022-08-18T04:41:16;90.85;;;61.10;;
3083;SDS011;1552;51.952;7.618;2022-08-18T04:43:43;96.53;;;60.83;;
3083;SDS011;1552;51.952;7.618;2022-08-18T04:46:09;103.65;;;64.40;;
3083;SDS011;1552;51.952;7.618;2022-08-18T04:48:38;97.55;;;63.28;;
3083;SDS011;1552;51.952;7.618;2022-08-18T04:51:05;106.95;;;65.82;;
3083;SDS011;1552;51.952;7.618;2022-08-18T04:53:32;105.43;;;65.75;;
3083;SDS011;1552;51.952;7.618;2022-08-18T04:56:15;95.55;;;63.60;;
3083;SDS011;1552;51.952;7.618;2022-08-18T04:58:44;98.72;;;65.70;;
3083;SDS011;1552;51.952;7.618;2022-08-18T05:01:16;99.50;;;62.20;;
3083;SDS011;1552;51.952;7.618;2022-08-18T05:03:44;101.50;;;64.43;;
3083;SDS011;1552;51.952;7.618;2022-08-18T05:06:11;105.57;;;65.13;;
3083;SDS011;1552;51.952;7.618;2022-08-18T05:08:38;103.20;;;64.82;;
3083;SDS011;1552;51.952;7.618;2022-08-18T05:11:05;105.40;;;65.40;;
3083;SDS011;1552;51.952;7.618;2022-08-18T05:16:16;98.95;;;65.35;;
3083;SDS011;1552;51.952;7.618;2022-08-18T05:18:44;108.68;;;69.18;;
3083;SDS011;1552;51.952;7.618;2022-08-18T05:21:11;103.50;;;65.78;;
3083;SDS011;1552;51.952;7.618;2022-08-18T05:23:38;99.47;;;65.25;;
3083;SDS011;1552;51.952;7.618;2022-08-18T05:26:05;107.63;;;67.55;;
3083;SDS011;1552;51.952;7.618;2022-08-18T05:28:32;104.68;;;66.47;;
3083;SDS011;1552;51.952;7.618;2022-08-18T05:31:04;108.70;;;68.63;;
3083;SDS011;1552;51.952;7.618;2022-08-18T05:33:31;105.95;;;65.57;;
3083;SDS011;1552;51.952;7.618;2022-08-18T05:36:00;105.15;;;67.22;;
3083;SDS011;1552;51.952;7.618;2022-08-18T05:38:31;110.82;;;68.68;;
3083;SDS011;1552;51.952;7.618;2022-08-18T05:41:08;104.13;;;65.18;;
3083;SDS011;1552;51.952;7.618;2022-08-18T05:43:35;105.03;;;63.30;;
3083;SDS011;1552;51.952;7.618;2022-08-18T05:46:02;101.35;;;62.75;;
3083;SDS011;1552;51.952;7.618;2022-08-18T05:48:30;103.63;;;62.33;;
3083;SDS011;1552;51.952;7.618;2022-08-18T05:50:56;108.18;;;65.45;;
3083;SDS011;1552;51.952;7.618;2022-08-18T05:53:25;114.88;;;70.53;;
3083;SDS011;1552;51.952;7.618;2022-08-18T05:56:14;120.72;;;72.50;;
3083;SDS011;1552;51.952;7.618;2022-08-18T05:59:02;122.80;;;71.68;;
3083;SDS011;1552;51.952;7.618;2022-08-18T06:01:30;120.68;;;71.70;;
3083;SDS011;1552;51.952;7.618;2022-08-18T06:04:00;114.10;;;67.43;;
3083;SDS011;1552;51.952;7.618;2022-08-18T06:06:27;108.72;;;66.93;;
3083;SDS011;1552;51.952;7.618;2022-08-18T06:08:57;107.95;;;65.35;;
3083;SDS011;1552;51.952;7.618;2022-08-18T06:11:28;105.65;;;64.32;;
3083;SDS011;1552;51.952;7.618;2022-08-18T06:13:54;111.38;;;66.78;;
3083;SDS011;1552;51.952;7.618;2022-08-18T06:16:22;128.05;;;72.57;;
3083;SDS011;1552;51.952;7.618;2022-08-18T06:18:51;114.97;;;68.53;;
3083;SDS011;1552;51.952;7.618;2022-08-18T06:21:25;115.70;;;66.80;;
3083;SDS011;1552;51.952;7.618;2022-08-18T06:23:54;111.88;;;66.85;;
3083;SDS011;1552;51.952;7.618;2022-08-18T06:26:24;121.60;;;70.70;;
3083;SDS011;1552;51.952;7.618;2022-08-18T06:29:00;120.13;;;67.78;;
3083;SDS011;1552;51.952;7.618;2022-08-18T06:31:30;122.40;;;69.22;;
3083;SDS011;1552;51.952;7.618;2022-08-18T06:34:01;114.72;;;65.88;;
3083;SDS011;1552;51.952;7.618;2022-08-18T06:36:33;122.70;;;68.15;;
3083;SDS011;1552;51.952;7.618;2022-08-18T06:39:03;115.07;;;68.03;;
3083;SDS011;1552;51.952;7.618;2022-08-18T06:41:36;123.43;;;71.28;;
3083;SDS011;1552;51.952;7.618;2022-08-18T06:44:05;120.53;;;69.65;;
3083;SDS011;1552;51.952;7.618;2022-08-18T06:46:36;118.55;;;68.45;;
3083;SDS011;1552;51.952;7.618;2022-08-18T06:49:30;113.00;;;66.95;;
3083;SDS011;1552;51.952;7.618;2022-08-18T06:54:43;111.93;;;66.82;;
3083;SDS011;1552;51.952;7.618;2022-08-18T06:57:19;101.88;;;61.25;;
3083;SDS011;1552;51.952;7.618;2022-08-18T06:59:53;108.10;;;61.40;;
3083;SDS011;1552;51.952;7.618;2022-08-18T07:02:22;109.63;;;65.57;;
3083;SDS011;1552;51.952;7.618;2022-08-18T07:05:00;103.43;;;61.85;;
3083;SDS011;1552;51.952;7.618;2022-08-18T07:07:31;93.53;;;58.33;;
3083;SDS011;1552;51.952;7.618;2022-08-18T07:10:00;97.50;;;59.45;;
3083;SDS011;1552;51.952;7.618;2022-08-18T07:12:28;93.97;;;56.20;;
3083;SDS011;1552;51.952;7.618;2022-08-18T07:14:55;98.15;;;61.63;;
3083;SDS011;1552;51.952;7.618;2022-08-18T07:17:25;101.05;;;61.25;;
3083;SDS011;1552;51.952;7.618;2022-08-18T07:19:56;95.97;;;58.33;;
3083;SDS011;1552;51.952;7.618;2022-08-18T07:22:23;93.97;;;57.22;;
3083;SDS011;1552;51.952;7.618;2022-08-18T07:24:50;92.43;;;56.80;;
3083;SDS011;1552;51.952;7.618;2022-08-18T07:27:18;94.78;;;59.22;;
3083;SDS011;1552;51.952;7.618;2022-08-18T07:29:59;100.53;;;58.88;;
3083;SDS011;1552;51.952;7.618;2022-08-18T07:32:28;86.55;;;55.65;;
3083;SDS011;1552;51.952;7.618;2022-08-18T07:34:57;83.22;;;53.22;;
3083;SDS011;1552;51.952;7.618;2022-08-18T07:37:25;82.10;;;53.75;;
3083;SDS011;1552;51.952;7.618;2022-08-18T07:39:54;89.65;;;56.55;;
3083;SDS011;1552;51.952;7.618;2022-08-18T07:42:23;88.05;;;55.53;;
3083;SDS011;1552;51.952;7.618;2022-08-18T07:44:53;92.25;;;55.47;;
3083;SDS011;1552;51.952;7.618;2022-08-18T07:47:25;87.97;;;54.13;;
3083;SDS011;1552;51.952;7.618;2022-08-18T07:49:52;91.70;;;55.42;;
3083;SDS011;1552;51.952;7.618;2022-08-18T07:52:24;84.15;;;52.03;;
3083;SDS011;1552;51.952;7.618;2022-08-18T07:54:53;84.90;;;54.85;;
3083;SDS011;1552;51.952;7.618;2022-08-18T07:57:25;93.03;;;55.88;;
3083;SDS011;1552;51.952;7.618;2022-08-18T07:59:56;92.00;;;55.63;;
3083;SDS011;1552;51.952;7.618;2022-08-18T08:02:29;83.45;;;50.50;;
3083;SDS011;1552;51.952;7.618;2022-08-18T08:04:59;90.38;;;55.40;;
3083;SDS011;1552;51.952;7.618;2022-08-18T08:07:28;92.30;;;56.13;;
3083;SDS011;1552;51.952;7.618;2022-08-18T08:09:59;85.13;;;53.10;;
3083;SDS011;1552;51.952;7.618;2022-08-18T08:12:29;84.55;;;51.88;;
3083;SDS011;1552;51.952;7.618;2022-08-18T08:15:00;88.07;;;54.80;;
3083;SDS011;1552;51.952;7.618;2022-08-18T08:17:31;88.75;;;54.70;;
3083;SDS011;1552;51.952;7.618;2022-08-18T08:20:05;80.85;;;52.28;;
3083;SDS011;1552;51.952;7.618;2022-08-18T08:22:36;87.03;;;55.35;;
3083;SDS011;1552;51.952;7.618;2022-08-18T08:25:04;89.35;;;53.78;;
3083;SDS011;1552;51.952;7.618;2022-08-18T08:27:36;86.40;;;53.97;;
3083;SDS011;1552;51.952;7.618;2022-08-18T08:30:07;86.00;;;51.90;;
3083;SDS011;1552;51.952;7.618;2022-08-18T08:32:36;81.75;;;50.17;;
3083;SDS011;1552;51.952;7.618;2022-08-18T08:35:05;78.55;;;50.90;;
3083;SDS011;1552;51.952;7.618;2022-08-18T08:37:35;77.88;;;50.42;;
3083;SDS011;1552;51.952;7.618;2022-08-18T08:40:04;75.05;;;47.92;;
3083;SDS011;1552;51.952;7.618;2022-08-18T08:42:34;73.55;;;48.90;;
3083;SDS011;1552;51.952;7.618;2022-08-18T08:45:04;70.03;;;47.15;;
3083;SDS011;1552;51.952;7.618;2022-08-18T08:47:33;70.38;;;46.22;;
3083;SDS011;1552;51.952;7.618;2022-08-18T08:50:03;77.10;;;48.13;;
3083;SDS011;1552;51.952;7.618;2022-08-18T08:52:34;72.72;;;46.50;;
3083;SDS011;1552;51.952;7.618;2022-08-18T08:55:02;69.40;;;45.15;;
3083;SDS011;1552;51.952;7.618;2022-08-18T08:57:33;69.20;;;44.85;;
3083;SDS011;1552;51.952;7.618;2022-08-18T09:00:01;72.75;;;45.00;;
3083;SDS011;1552;51.952;7.618;2022-08-18T09:02:32;64.32;;;42.35;;
3083;SDS011;1552;51.952;7.618;2022-08-18T09:05:02;57.92;;;38.97;;
3083;SDS011;1552;51.952;7.618;2022-08-18T09:07:37;57.30;;;38.40;;
3083;SDS011;1552;51.952;7.618;2022-08-18T09:10:21;48.28;;;34.13;;
3083;SDS011;1552;51.952;7.618;2022-08-18T09:12:57;40.53;;;28.67;;
3083;SDS011;1552;51.952;7.618;2022-08-18T09:15:35;39.85;;;29.23;;
3083;SDS011;1552;51.952;7.618;2022-08-18T09:20:54;30.05;;;23.88;;
3083;SDS011;1552;51.952;7.618;2022-08-18T09:23:25;28.20;;;23.30;;
3083;SDS011;1552;51.952;7.618;2022-08-18T09:25:53;28.13;;;22.88;;
3083;SDS011;1552;51.952;7.618;2022-08-18T09:28:21;29.70;;;23.27;;
3083;SDS011;1552;51.952;7.618;2022-08-18T09:33:33;32.40;;;23.67;;
3083;SDS011;1552;51.952;7.618;2022-08-18T09:36:17;29.42;;;22.63;;
3083;SDS011;1552;51.952;7.618;2022-08-18T09:38:50;28.48;;;22.33;;
3083;SDS011;1552;51.952;7.618;2022-08-18T09:41:37;27.05;;;22.08;;
3083;SDS011;1552;51.952;7.618;2022-08-18T09:44:10;26.15;;;21.38;;
3083;SDS011;1552;51.952;7.618;2022-08-18T09:46:55;24.23;;;19.67;;
3083;SDS011;1552;51.952;7.618;2022-08-18T09:49:41;29.63;;;21.65;;
3083;SDS011;1552;51.952;7.618;2022-08-18T09:55:08;23.70;;;19.13;;
3083;SDS011;1552;51.952;7.618;2022-08-18T09:58:05;23.58;;;18.85;;
3083;SDS011;1552;51.952;7.618;2022-08-18T10:00:38;24.33;;;20.42;;
3083;SDS011;1552;51.952;7.618;2022-08-18T10:03:21;21.50;;;18.15;;
3083;SDS011;1552;51.952;7.618;2022-08-18T10:06:04;19.33;;;16.17;;
3083;SDS011;1552;51.952;7.618;2022-08-18T10:08:34;23.70;;;19.95;;
3083;SDS011;1552;51.952;7.618;2022-08-18T10:11:14;24.77;;;19.67;;
3083;SDS011;1552;51.952;7.618;2022-08-18T10:13:45;20.50;;;17.58;;
3083;SDS011;1552;51.952;7.618;2022-08-18T10:16:17;19.48;;;17.35;;
3083;SDS011;1552;51.952;7.618;2022-08-18T10:18:49;21.90;;;17.33;;
3083;SDS011;1552;51.952;7.618;2022-08-18T10:21:18;23.42;;;18.98;;
3083;SDS011;1552;51.952;7.618;2022-08-18T10:34:42;17.85;;;14.98;;
3083;SDS011;1552;51.952;7.618;2022-08-18T10:37:10;19.42;;;14.52;;
3083;SDS011;1552;51.952;7.618;2022-08-18T10:39:47;17.23;;;14.88;;
3083;SDS011;1552;51.952;7.618;2022-08-18T10:42:17;18.00;;;14.68;;
3083;SDS011;1552;51.952;7.618;2022-08-18T10:44:45;15.00;;;13.00;;
3083;SDS011;1552;51.952;7.618;2022-08-18T10:47:18;15.05;;;12.95;;
3083;SDS011;1552;51.952;7.618;2022-08-18T10:49:48;17.52;;;14.13;;
3083;SDS011;1552;51.952;7.618;2022-08-18T11:00:34;15.90;;;13.07;;
3083;SDS011;1552;51.952;7.618;2022-08-18T11:03:11;17.23;;;13.10;;
3083;SDS011;1552;51.952;7.618;2022-08-18T11:05:41;18.52;;;15.23;;
3083;SDS011;1552;51.952;7.618;2022-08-18T11:08:12;15.48;;;12.70;;
3083;SDS011;1552;51.952;7.618;2022-08-18T11:10:39;13.35;;;11.93;;
3083;SDS011;1552;51.952;7.618;2022-08-18T11:13:13;16.85;;;14.15;;
3083;SDS011;1552;51.952;7.618;2022-08-18T11:15:47;15.25;;;13.70;;
3083;SDS011;1552;51.952;7.618;2022-08-18T11:18:20;15.35;;;12.85;;
3083;SDS011;1552;51.952;7.618;2022-08-18T11:20:54;16.08;;;14.18;;
3083;SDS011;1552;51.952;7.618;2022-08-18T11:23:40;13.65;;;12.15;;
3083;SDS011;1552;51.952;7.618;2022-08-18T11:26:12;17.17;;;13.20;;
3083;SDS011;1552;51.952;7.618;2022-08-18T11:28:38;14.43;;;12.48;;
3083;SDS011;1552;51.952;7.618;2022-08-18T11:31:05;14.82;;;13.13;;
3083;SDS011;1552;51.952;7.618;2022-08-18T11:33:31;16.25;;;12.35;;
3083;SDS011;1552;51.952;7.618;2022-08-18T11:35:59;16.02;;;14.13;;
3083;SDS011;1552;51.952;7.618;2022-08-18T11:38:25;14.23;;;12.23;;
3083;SDS011;1552;51.952;7.618;2022-08-18T11:40:53;12.32;;;10.90;;
3083;SDS011;1552;51.952;7.618;2022-08-18T11:43:34;12.32;;;10.60;;
3083;SDS011;1552;51.952;7.618;2022-08-18T11:46:10;13.20;;;11.77;;
3083;SDS011;1552;51.952;7.618;2022-08-18T11:48:39;13.23;;;11.30;;
3083;SDS011;1552;51.952;7.618;2022-08-18T11:51:16;13.57;;;10.82;;
3083;SDS011;1552;51.952;7.618;2022-08-18T11:53:50;13.65;;;10.98;;
3083;SDS011;1552;51.952;7.618;2022-08-18T11:56:20;11.15;;;9.95;;
3083;SDS011;1552;51.952;7.618;2022-08-18T11:58:49;10.05;;;9.05;;
3083;SDS011;1552;51.952;7.618;2022-08-18T12:01:31;11.07;;;9.63;;
3083;SDS011;1552;51.952;7.618;2022-08-18T12:03:58;9.73;;;;;
3083;SDS011;1552;51.952;7.618;2022-08-18T12:06:33;9.45;;;8.45;;
3083;SDS011;1552;51.952;7.618;2022-08-18T12:09:02;10.27;;;8.90;;
3083;SDS011;1552;51.952;7.618;2022-08-18T12:11:29;15.63;;;9.82;;
3083;SDS011;1552;51.952;7.618;2022-08-18T12:14:03;10.00;;;8.65;;
3083;SDS011;1552;51.952;7.618;2022-08-18T12:16:31;8.45;;;7.53;;
3083;SDS011;1552;51.952;7.618;2022-08-18T12:18:58;10.52;;;9.52;;
3083;SDS011;1552;51.952;7.618;2022-08-18T12:21:24;9.98;;;8.98;;
3083;SDS011;1552;51.952;7.618;2022-08-18T12:23:52;9.48;;;8.32;;
3083;SDS011;1552;51.952;7.618;2022-08-18T12:26:19;10.27;;;8.23;;
3083;SDS011;1552;51.952;7.618;2022-08-18T12:28:45;8.63;;;7.63;;
3083;SDS011;1552;51.952;7.618;2022-08-18T12:31:12;11.18;;;9.80;;
3083;SDS011;1552;51.952;7.618;2022-08-18T12:33:38;11.50;;;10.27;;
3083;SDS011;1552;51.952;7.618;2022-08-18T12:36:05;10.95;;;9.85;;
3083;SDS011;1552;51.952;7.618;2022-08-18T12:38:31;12.02;;;10.75;;
3083;SDS011;1552;51.952;7.618;2022-08-18T12:40:59;9.20;;;8.35;;
3083;SDS011;1552;51.952;7.618;2022-08-18T12:43:25;13.18;;;11.82;;
3083;SDS011;1552;51.952;7.618;2022-08-18T12:45:52;12.85;;;11.48;;
3083;SDS011;1552;51.952;7.618;2022-08-18T12:48:18;12.57;;;11.07;;
3083;SDS011;1552;51.952;7.618;2022-08-18T12:50:45;11.43;;;10.32;;
3083;SDS011;1552;51.952;7.618;2022-08-18T12:53:11;12.70;;;10.70;;
3083;SDS011;1552;51.952;7.618;2022-08-18T12:55:39;11.27;;;10.15;;
3083;SDS011;1552;51.952;7.618;2022-08-18T12:58:08;10.95;;;9.88;;
3083;SDS011;1552;51.952;7.618;2022-08-18T13:00:34;13.18;;;10.00;;
3083;SDS011;1552;51.952;7.618;2022-08-18T13:03:01;12.68;;;10.80;;
3083;SDS011;1552;51.952;7.618;2022-08-18T13:05:27;12.40;;;9.98;;
3083;SDS011;1552;51.952;7.618;2022-08-18T13:07:53;10.25;;;9.20;;
3083;SDS011;1552;51.952;7.618;2022-08-18T13:10:22;9.88;;;8.20;;
3083;SDS011;1552;51.952;7.618;2022-08-18T13:12:48;9.60;;;8.70;;
3083;SDS011;1552;51.952;7.618;2022-08-18T13:15:16;11.45;;;10.10;;
3083;SDS011;1552;51.952;7.618;2022-08-18T13:17:45;10.30;;;9.30;;
3083;SDS011;1552;51.952;7.618;2022-08-18T13:20:12;12.43;;;7.63;;
3083;SDS011;1552;51.952;7.618;2022-08-18T13:22:39;11.80;;;8.20;;
3083;SDS011;1552;51.952;7.618;2022-08-18T13:25:07;8.90;;;7.47;;
3083;SDS011;1552;51.952;7.618;2022-08-18T13:27:33;8.35;;;7.45;;
3083;SDS011;1552;51.952;7.618;2022-08-18T13:30:00;8.90;;;7.43;;
3083;SDS011;1552;51.952;7.618;2022-08-18T13:32:27;8.52;;;7.63;;
3083;SDS011;1552;51.952;7.618;2022-08-18T13:34:54;10.10;;;8.45;;
3083;SDS011;1552;51.952;7.618;2022-08-18T13:37:20;9.20;;;7.43;;
3083;SDS011;1552;51.952;7.618;2022-08-18T13:39:47;8.75;;;7.75;;
3083;SDS011;1552;51.952;7.618;2022-08-18T13:42:14;7.10;;;6.03;;
3083;SDS011;1552;51.952;7.618;2022-08-18T13:44:40;8.98;;;7.65;;
3083;SDS011;1552;51.952;7.618;2022-08-18T13:47:07;11.65;;;7.60;;
3083;SDS011;1552;51.952;7.618;2022-08-18T13:49:35;8.32;;;7.35;;
3083;SDS011;1552;51.952;7.618;2022-08-18T13:52:02;7.45;;;6.75;;
3083;SDS011;1552;51.952;7.618;2022-08-18T13:54:30;7.32;;;6.40;;
3083;SDS011;1552;51.952;7.618;2022-08-18T13:56:57;8.00;;;6.88;;
3083;SDS011;1552;51.952;7.618;2022-08-18T13:59:24;8.25;;;6.18;;
3083;SDS011;1552;51.952;7.618;2022-08-18T14:01:56;7.65;;;5.88;;
3083;SDS011;1552;51.952;7.618;2022-08-18T14:04:22;9.85;;;7.05;;
3083;SDS011;1552;51.952;7.618;2022-08-18T14:06:50;7.70;;;6.97;;
3083;SDS011;1552;51.952;7.618;2022-08-18T14:09:16;7.47;;;6.78;;
3083;SDS011;1552;51.952;7.618;2022-08-18T14:11:43;11.55;;;7.40;;
3083;SDS011;1552;51.952;7.618;2022-08-18T14:14:11;8.55;;;7.53;;
3083;SDS011;1552;51.952;7.618;2022-08-18T14:16:38;7.22;;;6.50;;
3083;SDS011;1552;51.952;7.618;2022-08-18T14:19:04;8.45;;;5.85;;
3083;SDS011;1552;51.952;7.618;2022-08-18T14:21:50;6.20;;;5.55;;
3083;SDS011;1552;51.952;7.618;2022-08-18T14:24:35;8.57;;;6.20;;
3083;SDS011;1552;51.952;7.618;2022-08-18T14:27:23;7.35;;;5.95;;
3083;SDS011;1552;51.952;7.618;2022-08-18T14:29:49;6.95;;;5.82;;
3083;SDS011;1552;51.952;7.618;2022-08-18T14:32:17;9.13;;;5.50;;
3083;SDS011;1552;51.952;7.618;2022-08-18T14:34:44;7.40;;;5.90;;
3083;SDS011;1552;51.952;7.618;2022-08-18T14:37:15;6.35;;;5.28;;
3083;SDS011;1552;51.952;7.618;2022-08-18T14:39:42;6.32;;;5.60;;
3083;SDS011;1552;51.952;7.618;2022-08-18T14:42:11;5.15;;;4.65;;
3083;SDS011;1552;51.952;7.618;2022-08-18T14:44:39;8.60;;;6.70;;
3083;SDS011;1552;51.952;7.618;2022-08-18T14:47:11;6.50;;;5.80;;
3083;SDS011;1552;51.952;7.618;2022-08-18T14:49:37;6.95;;;6.25;;
3083;SDS011;1552;51.952;7.618;2022-08-18T14:52:05;7.85;;;6.40;;
3083;SDS011;1552;51.952;7.618;2022-08-18T14:54:33;6.18;;;5.57;;
3083;SDS011;1552;51.952;7.618;2022-08-18T14:56:59;5.90;;;5.38;;
3083;SDS011;1552;51.952;7.618;2022-08-18T14:59:26;5.53;;;5.00;;
3083;SDS011;1552;51.952;7.618;2022-08-18T15:01:54;6.15;;;5.38;;
3083;SDS011;1552;51.952;7.618;2022-08-18T15:04:21;7.03;;;4.95;;
3083;SDS011;1552;51.952;7.618;2022-08-18T15:06:47;8.93;;;6.93;;
3083;SDS011;1552;51.952;7.618;2022-08-18T15:09:14;6.53;;;5.80;;
3083;SDS011;1552;51.952;7.618;2022-08-18T15:11:42;6.97;;;5.85;;
3083;SDS011;1552;51.952;7.618;2022-08-18T15:14:08;6.57;;;5.97;;
3083;SDS011;1552;51.952;7.618;2022-08-18T15:16:34;6.22;;;5.30;;
3083;SDS011;1552;51.952;7.618;2022-08-18T15:19:01;6.20;;;5.70;;
3083;SDS011;1552;51.952;7.618;2022-08-18T15:21:28;6.93;;;6.20;;
3083;SDS011;1552;51.952;7.618;2022-08-18T15:24:12;6.70;;;5.78;;
3083;SDS011;1552;51.952;7.618;2022-08-18T15:26:57;8.18;;;6.40;;
3083;SDS011;1552;51.952;7.618;2022-08-18T15:29:24;6.00;;;5.40;;
3083;SDS011;1552;51.952;7.618;2022-08-18T15:31:51;7.45;;;6.20;;
3083;SDS011;1552;51.952;7.618;2022-08-18T15:34:17;5.90;;;5.30;;
3083;SDS011;1552;51.952;7.618;2022-08-18T15:36:44;6.65;;;5.53;;
3083;SDS011;1552;51.952;7.618;2022-08-18T15:39:11;6.97;;;4.68;;
3083;SDS011;1552;51.952;7.618;2022-08-18T15:41:38;5.45;;;4.90;;
3083;SDS011;1552;51.952;7.618;2022-08-18T15:44:06;5.72;;;4.55;;
3083;SDS011;1552;51.952;7.618;2022-08-18T15:46:34;5.97;;;5.22;;